Time;durP1;ratioP1;P1;durP2;ratioP2;P2;SDS_P1;SDS_P2;PMS_P1;PMS_P2;Temp;Humidity;BMP_temperature;BMP_pressure;BME280_temperature;BME280_humidity;BME280_pressure;Samples;Min_cycle;Max_cycle;Signal;HPM_P1;HPM_P2
2023/12/12 00:01:36;;;;;;;;;;;6.10;99.90;;;;;;5035675;28;19983;-86
2023/12/12 00:04:02;;;;;;;;;;;6.10;99.90;;;;;;5037139;28;19936;-87
2023/12/12 00:06:30;;;;;;;;;;;6.10;99.90;;;;;;5035541;28;19920;-87
2023/12/12 00:08:56;;;;;;;;;;;6.10;99.90;;;;;;5013054;28;19927;-87
2023/12/12 00:11:22;;;;;;;;;;;6.10;99.90;;;;;;5041469;28;20331;-87
2023/12/12 00:13:47;;;;;;;;;;;6.10;99.90;;;;;;5039985;28;19943;-87
2023/12/12 00:16:13;;;;;;;;;;;6.10;99.90;;;;;;5022413;28;20013;-88
2023/12/12 00:18:39;;;;;;;;;;;6.10;99.90;;;;;;5023320;28;19928;-87
2023/12/12 00:21:05;;;;;;;;;;;6.10;99.90;;;;;;5038626;28;19947;-87
2023/12/12 00:23:31;;;;;;;;;;;6.10;99.90;;;;;;5021882;28;20418;-88
2023/12/12 00:25:57;;;;;;;;;;;6.00;99.90;;;;;;5022313;28;19931;-87
2023/12/12 00:28:23;;;;;;;;;;;6.10;99.90;;;;;;5040210;28;19946;-88
2023/12/12 00:30:49;;;;;;;;;;;6.10;99.90;;;;;;5055839;28;20011;-87
2023/12/12 00:33:14;;;;;;;;;;;6.10;99.90;;;;;;5022266;28;19929;-87
2023/12/12 00:35:40;;;;;;;;;;;6.10;99.90;;;;;;5036731;28;19928;-88
2023/12/12 00:38:05;;;;;;;;;;;6.10;99.90;;;;;;5023081;28;19927;-88
2023/12/12 00:40:32;;;;;;;;;;;6.10;99.90;;;;;;5054772;28;19963;-88
2023/12/12 00:42:57;;;;;;;;;;;6.00;99.90;;;;;;5039202;28;19931;-88
2023/12/12 00:45:23;;;;;;;;;;;6.00;99.90;;;;;;5040668;28;19925;-88
2023/12/12 00:47:49;;;;;;;;;;;5.70;99.90;;;;;;5023585;28;19929;-88
2023/12/12 00:50:15;;;;;;;;;;;5.80;99.90;;;;;;5035339;28;20435;-86
2023/12/12 00:52:41;;;;;;;;;;;5.70;99.90;;;;;;5038364;28;19974;-87
2023/12/12 00:55:07;;;;;;;;;;;5.90;99.90;;;;;;5052963;28;20003;-88
2023/12/12 00:57:33;;;;;;;;;;;5.60;99.90;;;;;;5019778;28;20594;-88
2023/12/12 00:59:58;;;;;;;;;;;5.60;99.90;;;;;;5037346;28;19927;-88
2023/12/12 01:02:24;;;;;;;;;;;5.50;99.90;;;;;;5023832;28;20161;-87
2023/12/12 01:04:50;;;;;;;;;;;5.50;99.90;;;;;;5023360;28;19929;-88
2023/12/12 01:07:16;;;;;;;;;;;5.30;99.90;;;;;;5052734;28;19927;-87
2023/12/12 01:09:42;;;;;;;;;;;5.40;99.90;;;;;;5038990;28;20067;-88
2023/12/12 01:12:07;;;;;;;;;;;5.30;99.90;;;;;;5038305;28;19927;-89
2023/12/12 01:14:33;;;;;;;;;;;5.30;99.90;;;;;;5022822;28;19927;-88
2023/12/12 01:16:58;;;;;;;;;;;5.40;99.90;;;;;;5023795;28;19926;-88
2023/12/12 01:19:24;;;;;;;;;;;5.10;99.90;;;;;;5048770;28;19925;-88
2023/12/12 01:21:50;;;;;;;;;;;5.10;99.90;;;;;;5037649;28;20445;-88
2023/12/12 01:24:16;;;;;;;;;;;5.00;99.90;;;;;;5038733;28;19908;-88
2023/12/12 01:26:41;;;;;;;;;;;4.90;99.90;;;;;;5021448;28;19920;-89
2023/12/12 01:29:07;;;;;;;;;;;5.00;99.90;;;;;;5038768;28;19924;-88
2023/12/12 01:31:32;;;;;;;;;;;4.80;99.90;;;;;;5021978;28;20375;-88
2023/12/12 01:33:58;;;;;;;;;;;4.80;99.90;;;;;;5027974;28;20375;-87
2023/12/12 01:36:24;;;;;;;;;;;4.80;99.90;;;;;;5009330;28;19921;-87
2023/12/12 01:38:49;;;;;;;;;;;4.70;99.90;;;;;;5015269;28;19924;-87
2023/12/12 01:41:15;;;;;;;;;;;4.70;99.90;;;;;;5022917;28;19924;-88
2023/12/12 01:43:41;;;;;;;;;;;4.70;99.90;;;;;;5012816;28;19930;-88
2023/12/12 01:46:07;;;;;;;;;;;4.60;99.90;;;;;;5009807;28;20385;-86
2023/12/12 01:48:33;;;;;;;;;;;4.50;99.90;;;;;;5022410;28;20421;-88
2023/12/12 01:50:59;;;;;;;;;;;4.30;99.90;;;;;;5033440;28;19920;-87
2023/12/12 01:53:43;;;;;;;;;;;3.80;99.90;;;;;;5030558;28;19944;-87
2023/12/12 01:56:09;;;;;;;;;;;4.20;99.90;;;;;;5023435;28;19921;-87
2023/12/12 01:58:36;;;;;;;;;;;4.40;99.90;;;;;;5010733;28;19924;-87
2023/12/12 02:01:02;;;;;;;;;;;;;;;;;;5022917;28;19924;-88
2023/12/12 02:03:28;;;;;;;;;;;4.20;99.90;;;;;;5017217;28;20376;-88
2023/12/12 02:05:57;;;;;;;;;;;4.20;99.90;;;;;;5003235;28;19971;-88
2023/12/12 02:08:23;;;;;;;;;;;4.20;99.90;;;;;;5023675;28;20029;-88
2023/12/12 02:10:49;;;;;;;;;;;4.20;99.90;;;;;;5018169;28;19966;-88
2023/12/12 02:13:15;;;;;;;;;;;4.00;99.90;;;;;;5018166;28;20616;-86
2023/12/12 02:15:40;;;;;;;;;;;3.90;99.90;;;;;;5007761;28;19920;-88
2023/12/12 02:18:06;;;;;;;;;;;3.90;99.90;;;;;;5015383;28;19925;-88
2023/12/12 02:20:32;;;;;;;;;;;4.00;99.90;;;;;;5005181;28;19924;-88
2023/12/12 02:22:57;;;;;;;;;;;4.40;99.90;;;;;;5036281;28;20337;-88
2023/12/12 02:25:23;;;;;;;;;;;4.10;99.90;;;;;;5030690;28;19925;-88
2023/12/12 02:27:48;;;;;;;;;;;3.80;99.90;;;;;;5020036;28;19920;-89
2023/12/12 02:30:16;;;;;;;;;;;3.70;99.90;;;;;;5050007;28;19925;-88
2023/12/12 02:32:41;;;;;;;;;;;3.70;99.90;;;;;;5019970;28;19927;-88
2023/12/12 02:35:07;;;;;;;;;;;3.70;99.90;;;;;;5036433;28;19920;-88
2023/12/12 02:37:33;;;;;;;;;;;4.00;99.90;;;;;;5021902;28;19932;-88
2023/12/12 02:39:58;;;;;;;;;;;3.80;99.90;;;;;;5013199;28;19964;-87
2023/12/12 02:42:24;;;;;;;;;;;3.80;99.90;;;;;;5014448;28;20011;-88
2023/12/12 02:44:49;;;;;;;;;;;3.50;99.90;;;;;;5037809;28;20407;-88
2023/12/12 02:47:15;;;;;;;;;;;3.50;99.90;;;;;;5021936;28;19977;-88
2023/12/12 02:49:41;;;;;;;;;;;3.50;99.90;;;;;;5021378;28;19925;-88
2023/12/12 02:52:07;;;;;;;;;;;3.50;99.90;;;;;;5018460;28;19957;-88
2023/12/12 02:54:32;;;;;;;;;;;3.50;99.90;;;;;;5021204;28;19920;-87
2023/12/12 02:56:58;;;;;;;;;;;3.40;99.90;;;;;;5039266;28;20291;-87
2023/12/12 02:59:23;;;;;;;;;;;4.20;99.90;;;;;;5021053;28;20063;-87
2023/12/12 03:01:49;;;;;;;;;;;3.50;99.90;;;;;;5040402;28;19959;-88
2023/12/12 03:04:15;;;;;;;;;;;3.60;99.90;;;;;;5039012;28;20327;-87
2023/12/12 03:06:41;;;;;;;;;;;3.50;99.90;;;;;;5036587;28;20283;-87
2023/12/12 03:09:06;;;;;;;;;;;3.50;99.90;;;;;;5053131;28;19925;-86
2023/12/12 03:11:34;;;;;;;;;;;3.60;99.90;;;;;;5037705;28;19925;-86
2023/12/12 03:14:00;;;;;;;;;;;3.70;99.90;;;;;;5020451;28;19925;-88
2023/12/12 03:16:25;;;;;;;;;;;4.60;99.90;;;;;;5019120;28;19966;-88
2023/12/12 03:18:51;;;;;;;;;;;3.70;99.90;;;;;;5032633;28;19931;-86
2023/12/12 03:21:17;;;;;;;;;;;3.70;99.90;;;;;;5019128;28;20026;-87
2023/12/12 03:23:42;;;;;;;;;;;3.90;99.90;;;;;;5035749;28;19920;-87
2023/12/12 03:26:11;;;;;;;;;;;3.70;99.90;;;;;;5034198;28;20367;-88
2023/12/12 03:28:36;;;;;;;;;;;3.80;99.90;;;;;;5037541;28;19924;-87
2023/12/12 03:31:05;;;;;;;;;;;3.80;99.90;;;;;;5037218;28;19967;-87
2023/12/12 03:33:31;;;;;;;;;;;3.80;99.90;;;;;;5031914;28;19929;-86
2023/12/12 03:35:57;;;;;;;;;;;3.90;99.90;;;;;;5024592;28;20430;-87
2023/12/12 03:38:22;;;;;;;;;;;3.90;99.90;;;;;;5010393;28;19946;-87
2023/12/12 03:40:48;;;;;;;;;;;3.90;99.90;;;;;;5033384;28;19920;-87
2023/12/12 03:43:13;;;;;;;;;;;3.90;99.90;;;;;;5019437;28;20391;-87
2023/12/12 03:45:40;;;;;;;;;;;4.00;99.90;;;;;;5010163;28;19936;-88
2023/12/12 03:48:06;;;;;;;;;;;4.00;99.90;;;;;;5020800;28;19927;-88
2023/12/12 03:50:31;;;;;;;;;;;4.00;99.90;;;;;;5019619;28;19920;-87
2023/12/12 03:52:57;;;;;;;;;;;4.00;99.90;;;;;;5024515;28;19952;-88
2023/12/12 03:55:23;;;;;;;;;;;4.00;99.90;;;;;;5021765;28;20008;-88
2023/12/12 03:57:48;;;;;;;;;;;4.00;99.90;;;;;;5022755;28;19928;-88
2023/12/12 04:00:14;;;;;;;;;;;4.00;99.90;;;;;;5020070;28;20713;-88
2023/12/12 04:02:40;;;;;;;;;;;4.10;99.90;;;;;;5019380;28;19932;-88
2023/12/12 04:05:09;;;;;;;;;;;4.10;99.90;;;;;;5036740;28;19925;-87
2023/12/12 04:07:36;;;;;;;;;;;4.10;99.90;;;;;;5020646;28;20346;-88
2023/12/12 04:10:02;;;;;;;;;;;4.10;99.90;;;;;;5004860;28;20425;-87
2023/12/12 04:12:28;;;;;;;;;;;4.30;99.90;;;;;;5023655;28;19921;-89
2023/12/12 04:14:53;;;;;;;;;;;4.10;99.90;;;;;;5028225;28;20427;-88
2023/12/12 04:17:19;;;;;;;;;;;4.20;99.90;;;;;;5009635;28;19934;-86
2023/12/12 04:19:44;;;;;;;;;;;4.10;99.90;;;;;;5003698;28;20467;-87
2023/12/12 04:22:10;;;;;;;;;;;4.20;99.90;;;;;;5019939;28;19925;-87
2023/12/12 04:24:36;;;;;;;;;;;4.20;99.90;;;;;;5002238;28;19924;-88
2023/12/12 04:27:02;;;;;;;;;;;4.10;99.90;;;;;;5008251;28;20356;-87
2023/12/12 04:29:27;;;;;;;;;;;4.20;99.90;;;;;;5025144;28;19921;-88
2023/12/12 04:31:53;;;;;;;;;;;4.10;99.90;;;;;;5019235;28;19921;-88
2023/12/12 04:34:18;;;;;;;;;;;4.10;99.90;;;;;;5021650;28;19929;-87
2023/12/12 04:36:44;;;;;;;;;;;4.10;99.90;;;;;;5014765;28;19924;-88
2023/12/12 04:39:14;;;;;;;;;;;4.10;99.90;;;;;;5003044;28;20265;-87
2023/12/12 04:41:39;;;;;;;;;;;4.20;99.90;;;;;;5027739;28;20325;-88
2023/12/12 04:44:07;;;;;;;;;;;4.20;99.90;;;;;;5035074;28;20012;-88
2023/12/12 04:46:32;;;;;;;;;;;4.20;99.90;;;;;;5026424;28;20053;-86
2023/12/12 04:49:00;;;;;;;;;;;4.20;99.90;;;;;;5028110;28;20406;-87
2023/12/12 04:51:26;;;;;;;;;;;4.20;99.90;;;;;;5009356;28;19960;-86
2023/12/12 04:53:52;;;;;;;;;;;4.20;99.90;;;;;;5029327;28;20021;-87
2023/12/12 04:56:17;;;;;;;;;;;4.20;99.90;;;;;;5032947;28;20375;-89
2023/12/12 04:58:43;;;;;;;;;;;4.30;99.90;;;;;;5028160;28;19939;-88
2023/12/12 05:01:09;;;;;;;;;;;4.20;99.90;;;;;;5001492;28;20448;-86
2023/12/12 05:03:34;;;;;;;;;;;4.20;99.90;;;;;;5001470;28;19925;-87
2023/12/12 05:06:00;;;;;;;;;;;4.90;99.90;;;;;;5001041;28;19925;-87
2023/12/12 05:08:26;;;;;;;;;;;4.30;99.90;;;;;;5036461;28;19971;-87
2023/12/12 05:10:52;;;;;;;;;;;4.30;99.90;;;;;;5026942;28;19920;-86
2023/12/12 05:13:18;;;;;;;;;;;4.60;99.90;;;;;;5028151;28;20669;-87
2023/12/12 05:15:44;;;;;;;;;;;4.30;99.90;;;;;;5017792;28;19921;-86
2023/12/12 05:18:09;;;;;;;;;;;4.30;99.90;;;;;;5032069;28;19929;-87
2023/12/12 05:20:35;;;;;;;;;;;4.30;99.90;;;;;;5010895;28;19921;-87
2023/12/12 05:23:01;;;;;;;;;;;4.40;99.90;;;;;;5038073;28;19921;-88
2023/12/12 05:25:27;;;;;;;;;;;4.40;99.90;;;;;;5013941;28;20376;-87
2023/12/12 05:27:52;;;;;;;;;;;4.40;99.90;;;;;;5032792;28;19971;-88
2023/12/12 05:30:18;;;;;;;;;;;4.30;99.90;;;;;;5001075;28;19921;-88
2023/12/12 05:32:44;;;;;;;;;;;4.40;99.90;;;;;;5000656;28;19928;-86
2023/12/12 05:35:09;;;;;;;;;;;4.30;99.90;;;;;;5051808;28;19931;-86
2023/12/12 05:37:36;;;;;;;;;;;4.30;99.90;;;;;;5036946;28;19928;-86
2023/12/12 05:40:02;;;;;;;;;;;4.40;99.90;;;;;;5038317;28;20342;-87
2023/12/12 05:42:28;;;;;;;;;;;4.30;99.90;;;;;;5036509;28;19920;-88
2023/12/12 05:44:53;;;;;;;;;;;4.30;99.90;;;;;;5019969;28;19932;-87
2023/12/12 05:47:19;;;;;;;;;;;4.30;99.90;;;;;;5021739;28;19929;-87
2023/12/12 05:49:45;;;;;;;;;;;4.30;99.90;;;;;;5053019;28;20379;-89
2023/12/12 05:52:10;;;;;;;;;;;4.20;99.90;;;;;;5020190;28;19927;-87
2023/12/12 05:54:36;;;;;;;;;;;4.20;99.90;;;;;;5018211;28;20302;-87
2023/12/12 05:57:02;;;;;;;;;;;4.10;99.90;;;;;;5018913;28;20283;-88
2023/12/12 05:59:27;;;;;;;;;;;4.10;99.90;;;;;;5019941;28;19943;-86
2023/12/12 06:01:53;;;;;;;;;;;4.40;99.90;;;;;;5053242;28;20294;-86
2023/12/12 06:04:19;;;;;;;;;;;4.00;99.90;;;;;;5020640;28;19924;-87
2023/12/12 06:06:44;;;;;;;;;;;3.90;99.90;;;;;;5030796;28;21238;-86
2023/12/12 06:09:10;;;;;;;;;;;3.90;99.90;;;;;;5013642;28;19920;-86
2023/12/12 06:11:36;;;;;;;;;;;4.30;99.90;;;;;;5038284;28;19989;-87
2023/12/12 06:14:03;;;;;;;;;;;3.80;99.90;;;;;;5050221;28;19974;-86
2023/12/12 06:16:29;;;;;;;;;;;3.90;99.90;;;;;;5049209;28;19928;-86
2023/12/12 06:18:55;;;;;;;;;;;3.70;99.90;;;;;;5035795;28;20411;-87
2023/12/12 06:21:20;;;;;;;;;;;3.70;99.90;;;;;;5024262;28;19971;-86
2023/12/12 06:23:46;;;;;;;;;;;3.70;99.90;;;;;;5035157;28;20555;-85
2023/12/12 06:26:12;;;;;;;;;;;3.80;99.90;;;;;;5015540;28;19921;-89
2023/12/12 06:28:37;;;;;;;;;;;3.60;99.90;;;;;;5019796;28;20375;-87
2023/12/12 06:31:03;;;;;;;;;;;3.50;99.90;;;;;;5037864;28;19920;-89
2023/12/12 06:33:29;;;;;;;;;;;3.50;99.90;;;;;;5023731;28;19924;-87
2023/12/12 06:35:58;;;;;;;;;;;3.40;99.90;;;;;;4998930;28;20173;-88
2023/12/12 06:38:24;;;;;;;;;;;3.40;99.90;;;;;;4999206;28;19970;-88
2023/12/12 06:40:50;;;;;;;;;;;3.30;99.90;;;;;;5030317;28;20387;-88
2023/12/12 06:43:16;;;;;;;;;;;3.30;99.90;;;;;;4998875;28;19947;-89
2023/12/12 06:45:41;;;;;;;;;;;3.30;99.90;;;;;;5001012;28;20413;-87
2023/12/12 06:48:07;;;;;;;;;;;3.20;99.90;;;;;;5015429;28;20026;-85
2023/12/12 06:50:32;;;;;;;;;;;3.20;99.90;;;;;;4994983;28;19924;-85
2023/12/12 06:52:58;;;;;;;;;;;3.20;99.90;;;;;;5015193;28;20380;-90
2023/12/12 06:55:25;;;;;;;;;;;3.10;99.90;;;;;;4996559;28;20398;-95
2023/12/12 06:57:51;;;;;;;;;;;3.10;99.90;;;;;;5002008;28;19936;-95
2023/12/12 07:00:16;;;;;;;;;;;3.10;99.90;;;;;;5005060;28;19924;-96
2023/12/12 07:02:42;;;;;;;;;;;3.10;99.90;;;;;;5001391;28;19960;-94
2023/12/12 07:05:08;;;;;;;;;;;3.00;99.90;;;;;;5026408;28;19969;-96
2023/12/12 07:07:36;;;;;;;;;;;3.40;99.90;;;;;;5040201;28;19933;-96
2023/12/12 07:10:06;;;;;;;;;;;3.00;99.90;;;;;;5030851;28;19943;-96
2023/12/12 07:12:32;;;;;;;;;;;2.90;99.90;;;;;;5024589;28;19932;-96
2023/12/12 07:14:58;;;;;;;;;;;2.10;99.90;;;;;;5031799;28;19933;-96
2023/12/12 07:17:27;;;;;;;;;;;2.90;99.90;;;;;;5029756;28;20299;-96
2023/12/12 07:19:56;;;;;;;;;;;3.70;99.90;;;;;;5030063;28;19921;-96
2023/12/12 07:22:22;;;;;;;;;;;3.20;99.90;;;;;;5042823;28;19932;-96
2023/12/12 07:24:47;;;;;;;;;;;3.00;99.90;;;;;;5016663;28;19952;-93
2023/12/12 07:27:13;;;;;;;;;;;3.00;99.90;;;;;;5004221;28;19928;-93
2023/12/12 07:29:39;;;;;;;;;;;4.10;99.90;;;;;;5015561;28;19927;-93
2023/12/12 07:32:04;;;;;;;;;;;3.20;99.90;;;;;;5019512;28;19932;-94
2023/12/12 07:34:30;;;;;;;;;;;3.20;99.90;;;;;;5021987;28;19994;-93
2023/12/12 07:36:56;;;;;;;;;;;3.30;99.90;;;;;;5014568;28;19924;-92
2023/12/12 07:39:22;;;;;;;;;;;3.30;99.90;;;;;;5013420;28;20267;-95
2023/12/12 07:41:47;;;;;;;;;;;3.10;99.90;;;;;;5021907;28;19931;-95
2023/12/12 07:44:13;;;;;;;;;;;3.40;99.90;;;;;;5025556;28;19925;-95
2023/12/12 07:46:39;;;;;;;;;;;3.50;99.90;;;;;;5018813;28;19921;-93
2023/12/12 07:49:08;;;;;;;;;;;3.40;99.90;;;;;;5022751;28;19924;-95
2023/12/12 07:51:34;;;;;;;;;;;3.50;99.90;;;;;;5020963;28;19927;-93
2023/12/12 07:54:01;;;;;;;;;;;3.60;99.90;;;;;;5024009;28;20287;-96
2023/12/12 07:56:27;;;;;;;;;;;3.60;99.90;;;;;;5022918;28;19931;-96
2023/12/12 07:58:52;;;;;;;;;;;3.60;99.90;;;;;;5006733;28;19921;-94
2023/12/12 08:01:18;;;;;;;;;;;3.70;99.90;;;;;;4994259;28;19971;-95
2023/12/12 08:03:44;;;;;;;;;;;3.70;99.90;;;;;;5014510;28;19957;-95
2023/12/12 08:06:10;;;;;;;;;;;3.70;99.90;;;;;;5010472;28;20015;-93
2023/12/12 08:08:36;;;;;;;;;;;3.70;99.90;;;;;;5019367;28;19921;-93
2023/12/12 08:11:02;;;;;;;;;;;3.70;99.90;;;;;;5020079;28;19924;-94
2023/12/12 08:13:27;;;;;;;;;;;3.80;99.90;;;;;;5011007;28;19995;-96
2023/12/12 08:15:53;;;;;;;;;;;4.60;99.90;;;;;;5004466;28;19957;-96
2023/12/12 08:18:19;;;;;;;;;;;3.70;99.90;;;;;;5024164;28;20004;-96
2023/12/12 08:20:50;;;;;;;;;;;3.60;99.90;;;;;;5018473;28;19921;-96
2023/12/12 08:23:16;;;;;;;;;;;3.80;99.90;;;;;;5024041;28;19920;-96
2023/12/12 08:25:42;;;;;;;;;;;4.00;99.90;;;;;;5016885;28;20001;-96
2023/12/12 08:28:08;;;;;;;;;;;5.20;99.90;;;;;;5034906;28;19929;-96
2023/12/12 08:30:35;;;;;;;;;;;4.00;99.90;;;;;;5043547;28;19927;-96
2023/12/12 08:33:01;;;;;;;;;;;3.90;99.90;;;;;;5029649;28;20004;-96
2023/12/12 08:35:27;;;;;;;;;;;3.90;99.90;;;;;;5038809;28;20713;-95
2023/12/12 08:37:53;;;;;;;;;;;3.90;99.90;;;;;;5041087;28;19928;-96
2023/12/12 08:40:19;;;;;;;;;;;4.00;99.90;;;;;;5036556;28;19920;-96
2023/12/12 08:42:44;;;;;;;;;;;3.90;99.90;;;;;;5059312;22;19932;-90
2023/12/12 08:45:10;;;;;;;;;;;4.00;99.90;;;;;;5046612;28;19936;-91
2023/12/12 08:47:36;;;;;;;;;;;4.00;99.90;;;;;;5036847;28;20382;-91
2023/12/12 08:50:03;;;;;;;;;;;4.10;99.90;;;;;;5037887;28;20286;-91
2023/12/12 08:52:31;;;;;;;;;;;4.10;99.90;;;;;;5052254;28;20015;-90
2023/12/12 08:54:57;;;;;;;;;;;4.10;99.90;;;;;;5053046;28;20007;-90
2023/12/12 08:57:23;;;;;;;;;;;4.30;99.90;;;;;;5052064;28;20011;-90
2023/12/12 08:59:48;;;;;;;;;;;4.20;99.90;;;;;;5037628;28;20430;-90
2023/12/12 09:02:14;;;;;;;;;;;4.20;99.90;;;;;;5054944;28;19963;-91
2023/12/12 09:04:40;;;;;;;;;;;4.20;99.90;;;;;;5056535;28;19932;-91
2023/12/12 09:07:06;;;;;;;;;;;4.30;99.90;;;;;;5036934;28;20002;-90
2023/12/12 09:09:32;;;;;;;;;;;4.50;99.90;;;;;;5036262;28;19920;-91
2023/12/12 09:12:00;;;;;;;;;;;4.60;99.90;;;;;;5056246;28;19974;-91
2023/12/12 09:14:27;;;;;;;;;;;4.60;99.90;;;;;;5055656;28;19921;-91
2023/12/12 09:16:52;;;;;;;;;;;4.80;99.90;;;;;;5055383;28;19999;-90
2023/12/12 09:19:18;;;;;;;;;;;5.90;99.90;;;;;;5039411;28;19960;-90
2023/12/12 09:21:43;;;;;;;;;;;4.80;99.90;;;;;;5038718;28;20015;-91
2023/12/12 09:24:09;;;;;;;;;;;4.70;99.90;;;;;;5039768;28;19932;-90
2023/12/12 09:26:35;;;;;;;;;;;4.90;99.90;;;;;;5050496;28;20051;-90
2023/12/12 09:29:01;;;;;;;;;;;4.80;99.90;;;;;;5056220;28;19995;-90
2023/12/12 09:31:27;;;;;;;;;;;4.90;99.90;;;;;;5055608;28;19920;-90
2023/12/12 09:33:53;;;;;;;;;;;3.60;99.90;;;;;;5072327;28;20523;-90
2023/12/12 09:36:19;;;;;;;;;;;5.10;99.90;;;;;;5072147;28;19928;-91
2023/12/12 09:38:44;;;;;;;;;;;4.90;99.90;;;;;;5039032;28;19920;-90
2023/12/12 09:41:15;;;;;;;;;;;5.00;99.90;;;;;;5055147;28;20007;-90
2023/12/12 09:43:41;;;;;;;;;;;4.90;99.90;;;;;;5055862;28;19929;-90
2023/12/12 09:46:08;;;;;;;;;;;4.90;99.90;;;;;;5044259;28;19929;-91
2023/12/12 09:48:35;;;;;;;;;;;4.90;99.90;;;;;;5043433;28;19920;-90
2023/12/12 09:51:01;;;;;;;;;;;4.90;99.90;;;;;;5054246;28;20330;-90
2023/12/12 09:53:29;;;;;;;;;;;4.90;99.90;;;;;;5037548;28;19920;-90
2023/12/12 09:55:55;;;;;;;;;;;4.90;99.90;;;;;;5071439;28;19943;-90
2023/12/12 09:58:21;;;;;;;;;;;5.10;99.90;;;;;;5035194;28;20003;-90
2023/12/12 10:00:46;;;;;;;;;;;4.90;99.90;;;;;;5054346;28;19920;-91
2023/12/12 10:03:13;;;;;;;;;;;4.90;99.90;;;;;;5037205;28;20521;-90
2023/12/12 10:05:39;;;;;;;;;;;4.90;99.90;;;;;;5054056;28;20330;-90
2023/12/12 10:08:05;;;;;;;;;;;4.90;99.90;;;;;;5039105;28;19925;-91
2023/12/12 10:10:31;;;;;;;;;;;5.00;99.90;;;;;;5038921;28;19936;-91
2023/12/12 10:12:56;;;;;;;;;;;4.90;99.90;;;;;;5054196;28;19921;-90
2023/12/12 10:15:25;;;;;;;;;;;4.90;99.90;;;;;;5065128;28;20260;-90
2023/12/12 10:17:56;;;;;;;;;;;4.90;99.90;;;;;;5054369;28;19921;-90
2023/12/12 10:20:29;;;;;;;;;;;5.00;99.90;;;;;;5052224;28;19928;-89
2023/12/12 10:22:59;;;;;;;;;;;5.00;99.90;;;;;;5054613;28;20469;-90
2023/12/12 10:25:24;;;;;;;;;;;4.90;99.90;;;;;;5054545;28;19970;-90
2023/12/12 10:27:53;;;;;;;;;;;5.00;99.90;;;;;;5037526;28;20314;-90
2023/12/12 10:30:22;;;;;;;;;;;5.00;99.90;;;;;;5070745;28;19927;-95
2023/12/12 10:32:51;;;;;;;;;;;5.00;99.90;;;;;;5052651;28;19935;-95
2023/12/12 10:35:17;;;;;;;;;;;5.00;99.90;;;;;;5048726;28;20015;-96
2023/12/12 10:37:43;;;;;;;;;;;5.00;99.90;;;;;;5055061;28;20252;-96
2023/12/12 10:40:29;;;;;;;;;;;5.00;99.90;;;;;;5038544;28;20007;-96
2023/12/12 10:42:55;;;;;;;;;;;4.90;99.90;;;;;;5050999;28;19970;-96
2023/12/12 10:45:20;;;;;;;;;;;5.00;99.90;;;;;;5036104;28;19956;-95
2023/12/12 10:47:47;;;;;;;;;;;4.90;99.90;;;;;;5067855;28;19921;-96
2023/12/12 10:50:14;;;;;;;;;;;4.90;99.90;;;;;;5052257;28;19943;-96
2023/12/12 10:52:40;;;;;;;;;;;4.90;99.90;;;;;;5048600;28;20688;-96
2023/12/12 10:55:08;;;;;;;;;;;4.80;99.90;;;;;;5070327;28;19935;-95
2023/12/12 10:57:36;;;;;;;;;;;4.90;99.90;;;;;;5067266;28;19947;-96
2023/12/12 11:00:11;;;;;;;;;;;4.90;99.90;;;;;;5071879;28;20011;-95
2023/12/12 11:02:43;;;;;;;;;;;5.50;99.90;;;;;;5042380;28;19986;-96
2023/12/12 11:05:10;;;;;;;;;;;4.20;99.90;;;;;;5046843;28;19970;-96
2023/12/12 11:07:36;;;;;;;;;;;4.80;99.90;;;;;;5055416;28;20007;-96
2023/12/12 11:10:22;;;;;;;;;;;5.40;99.90;;;;;;5057123;28;19972;-96
2023/12/12 11:12:58;;;;;;;;;;;4.80;99.90;;;;;;5064707;28;20295;-96
2023/12/12 11:15:24;;;;;;;;;;;4.80;99.90;;;;;;5070537;28;19964;-96
2023/12/12 11:17:51;;;;;;;;;;;4.80;99.90;;;;;;5036933;28;20273;-96
2023/12/12 11:20:19;;;;;;;;;;;5.10;99.90;;;;;;5054714;28;19990;-96
2023/12/12 11:22:44;;;;;;;;;;;4.90;99.90;;;;;;5054266;28;19924;-96
2023/12/12 11:25:15;;;;;;;;;;;4.90;99.90;;;;;;5071027;28;19973;-96
2023/12/12 11:27:44;;;;;;;;;;;4.90;99.90;;;;;;5072536;28;19970;-96
2023/12/12 11:30:10;;;;;;;;;;;4.90;99.90;;;;;;5055573;28;19927;-96
2023/12/12 11:32:35;;;;;;;;;;;4.90;99.90;;;;;;5036510;28;19920;-96
2023/12/12 11:35:06;;;;;;;;;;;4.10;99.90;;;;;;5052406;28;19920;-96
2023/12/12 11:37:38;;;;;;;;;;;5.00;99.90;;;;;;5052132;28;19921;-95
2023/12/12 11:40:05;;;;;;;;;;;5.00;99.90;;;;;;5054588;28;19921;-96
2023/12/12 11:42:30;;;;;;;;;;;5.10;99.90;;;;;;5070717;28;19953;-96
2023/12/12 11:44:58;;;;;;;;;;;5.10;99.90;;;;;;5032022;28;19924;-96
2023/12/12 11:47:29;;;;;;;;;;;5.10;99.90;;;;;;5033274;28;19920;-96
2023/12/12 11:50:15;;;;;;;;;;;5.10;99.90;;;;;;5054604;28;19951;-96
2023/12/12 11:52:40;;;;;;;;;;;6.60;99.90;;;;;;5070466;28;20011;-95
2023/12/12 11:55:07;;;;;;;;;;;5.60;99.90;;;;;;5045611;28;19963;-96
2023/12/12 11:57:32;;;;;;;;;;;5.20;99.90;;;;;;5069885;28;19959;-96
2023/12/12 12:00:03;;;;;;;;;;;5.20;99.90;;;;;;5053722;28;19970;-96
2023/12/12 12:02:29;;;;;;;;;;;5.20;99.90;;;;;;5053421;28;19924;-96
2023/12/12 12:04:54;;;;;;;;;;;5.20;99.90;;;;;;5056742;28;19928;-96
2023/12/12 12:07:20;;;;;;;;;;;5.20;99.90;;;;;;5037930;28;19978;-96
2023/12/12 12:09:47;;;;;;;;;;;5.20;99.90;;;;;;5037014;28;20070;-96
2023/12/12 12:12:13;;;;;;;;;;;5.20;99.90;;;;;;5054738;28;19969;-95
2023/12/12 12:14:39;;;;;;;;;;;5.30;99.90;;;;;;5038337;28;20003;-96
2023/12/12 12:17:05;;;;;;;;;;;5.30;99.90;;;;;;5055441;28;19999;-96
2023/12/12 12:19:34;;;;;;;;;;;5.20;99.90;;;;;;5073833;28;19920;-95
2023/12/12 12:22:04;;;;;;;;;;;5.30;99.90;;;;;;5053701;28;20459;-96
2023/12/12 12:24:30;;;;;;;;;;;6.50;99.90;;;;;;5069330;28;19939;-96
2023/12/12 12:26:57;;;;;;;;;;;6.40;99.90;;;;;;5054757;28;19920;-96
2023/12/12 12:29:23;;;;;;;;;;;5.30;99.90;;;;;;5057296;28;19943;-95
2023/12/12 12:31:49;;;;;;;;;;;5.30;99.90;;;;;;5040503;28;20643;-96
2023/12/12 12:34:16;;;;;;;;;;;5.30;99.90;;;;;;5038134;28;19920;-96
2023/12/12 12:36:42;;;;;;;;;;;5.30;99.90;;;;;;5057612;28;20355;-96
2023/12/12 12:39:09;;;;;;;;;;;6.20;99.90;;;;;;5042748;28;20001;-96
2023/12/12 12:41:35;;;;;;;;;;;5.30;99.90;;;;;;5037075;28;19929;-96
2023/12/12 12:44:01;;;;;;;;;;;5.40;99.90;;;;;;5073406;28;19920;-96
2023/12/12 12:46:27;;;;;;;;;;;5.50;99.90;;;;;;5052755;28;20336;-96
2023/12/12 12:48:52;;;;;;;;;;;5.40;99.90;;;;;;5051232;28;19925;-96
2023/12/12 12:51:18;;;;;;;;;;;5.60;99.90;;;;;;5052974;28;20008;-96
2023/12/12 12:53:44;;;;;;;;;;;5.60;99.90;;;;;;5057150;28;20364;-96
2023/12/12 12:56:11;;;;;;;;;;;5.50;99.90;;;;;;5072185;28;20033;-96
2023/12/12 12:58:37;;;;;;;;;;;6.50;99.90;;;;;;5038171;28;19920;-96
2023/12/12 13:01:02;;;;;;;;;;;6.70;99.90;;;;;;5061079;28;19921;-96
2023/12/12 13:03:30;;;;;;;;;;;5.60;99.90;;;;;;5058793;28;19932;-96
2023/12/12 13:05:57;;;;;;;;;;;5.60;99.90;;;;;;5053748;28;20011;-96
2023/12/12 13:08:23;;;;;;;;;;;5.60;99.90;;;;;;5051114;28;20006;-89
2023/12/12 13:10:49;;;;;;;;;;;5.60;99.90;;;;;;5039284;28;19921;-90
2023/12/12 13:13:14;;;;;;;;;;;5.80;99.90;;;;;;5055581;28;19920;-90
2023/12/12 13:15:40;;;;;;;;;;;5.60;99.90;;;;;;5038383;28;19931;-90
2023/12/12 13:18:06;;;;;;;;;;;5.70;99.90;;;;;;5055169;28;20020;-90
2023/12/12 13:20:31;;;;;;;;;;;5.60;99.90;;;;;;5056006;28;20266;-90
2023/12/12 13:22:57;;;;;;;;;;;5.80;99.90;;;;;;5054725;28;19920;-91
2023/12/12 13:25:22;;;;;;;;;;;5.60;99.90;;;;;;5053952;28;19925;-91
2023/12/12 13:27:48;;;;;;;;;;;5.70;99.90;;;;;;5055460;28;20022;-91
2023/12/12 13:30:15;;;;;;;;;;;5.70;99.90;;;;;;5048302;28;20283;-92
2023/12/12 13:32:41;;;;;;;;;;;5.70;99.90;;;;;;5038965;28;19924;-91
2023/12/12 13:35:08;;;;;;;;;;;5.60;99.90;;;;;;5055909;28;20291;-92
2023/12/12 13:37:35;;;;;;;;;;;5.70;99.90;;;;;;5035747;28;19940;-92
2023/12/12 13:40:01;;;;;;;;;;;6.00;99.90;;;;;;5036210;28;19972;-91
2023/12/12 13:42:27;;;;;;;;;;;5.60;99.90;;;;;;5068314;28;19924;-92
2023/12/12 13:44:53;;;;;;;;;;;5.70;99.90;;;;;;5048504;28;20241;-91
2023/12/12 13:47:18;;;;;;;;;;;5.70;99.90;;;;;;5034801;28;20050;-91
2023/12/12 13:49:44;;;;;;;;;;;5.70;99.90;;;;;;5051588;28;19921;-92
2023/12/12 13:52:09;;;;;;;;;;;5.70;99.90;;;;;;5066987;28;19931;-91
2023/12/12 13:54:35;;;;;;;;;;;5.70;99.90;;;;;;5029103;28;20532;-93
2023/12/12 13:57:00;;;;;;;;;;;5.70;99.90;;;;;;5067158;28;19971;-92
2023/12/12 13:59:26;;;;;;;;;;;5.70;99.90;;;;;;5053463;28;19927;-93
2023/12/12 14:01:52;;;;;;;;;;;5.70;99.90;;;;;;5035073;28;20360;-92
2023/12/12 14:04:18;;;;;;;;;;;5.70;99.90;;;;;;5055588;28;20453;-91
2023/12/12 14:06:44;;;;;;;;;;;5.70;99.90;;;;;;5038512;28;19966;-92
2023/12/12 14:09:09;;;;;;;;;;;5.80;99.90;;;;;;5035716;28;19921;-92
2023/12/12 14:11:35;;;;;;;;;;;5.70;99.90;;;;;;5070227;28;20213;-92
2023/12/12 14:14:01;;;;;;;;;;;5.80;99.90;;;;;;5035434;28;19928;-92
2023/12/12 14:16:27;;;;;;;;;;;5.90;99.90;;;;;;5068551;28;19920;-92
2023/12/12 14:18:52;;;;;;;;;;;5.80;99.90;;;;;;5038960;28;19921;-91
2023/12/12 14:21:19;;;;;;;;;;;6.40;99.90;;;;;;5038766;28;19924;-96
2023/12/12 14:23:45;;;;;;;;;;;5.80;99.90;;;;;;5053747;28;20007;-96
2023/12/12 14:26:14;;;;;;;;;;;5.90;99.90;;;;;;5055142;28;19924;-96